EWG5K LSZH-EDDK
Flight info
| Callsign | EWG5K |
|---|---|
| Flight time | 0h 49m |
| Altitude | 30000 |
| Route | VEBIT T10 TORPA DCT EDOPI DCT GIVOR DCT SORAL DCT IBERA N853 DIK/N0459F310 N853 ARCKY T853 IBESA/N0418F230 T860 ERUKI ERUKI1F |
| Aircraft | A319/M-SDE3FGHIRWY/LB1 |
Departure
| Time | 2026-04-30 17:41 |
|---|---|
| Airport | Zürich Airport (LSZH) |
Arrival
| Time | 2026-04-30 18:30 |
|---|---|
| Airport | Cologne Bonn Airport (EDDK) |
| Time | Latitude | Longitude | Altitude | Speed | Heading |
|---|---|---|---|---|---|
| 2026-04-30 17:39 | 47.47173 | 8.67403 | 6015 ft | 228 kts | 9° |
| 2026-04-30 17:41 | 47.46290 | 8.50311 | 11433 ft | 351 kts | 233° |
| 2026-04-30 17:42 | 47.43311 | 8.44109 | 12449 ft | 376 kts | 234° |
| 2026-04-30 17:42 | 47.39014 | 8.34473 | 15011 ft | 383 kts | 243° |
| 2026-04-30 17:43 | 47.38319 | 8.26700 | 16198 ft | 392 kts | 283° |
| 2026-04-30 17:44 | 47.43345 | 8.17782 | 18208 ft | 390 kts | 338° |
| 2026-04-30 17:44 | 47.50807 | 8.12747 | 20171 ft | 400 kts | 335° |
| 2026-04-30 17:46 | 47.63041 | 8.01963 | 23097 ft | 417 kts | 332° |
| 2026-04-30 17:47 | 47.73135 | 7.93017 | 25018 ft | 428 kts | 332° |
| 2026-04-30 17:48 | 47.83507 | 7.83760 | 26728 ft | 441 kts | 332° |
| 2026-04-30 17:48 | 47.91460 | 7.76618 | 28004 ft | 449 kts | 332° |
| 2026-04-30 17:49 | 48.02295 | 7.66884 | 29518 ft | 460 kts | 332° |
| 2026-04-30 17:50 | 48.13274 | 7.56933 | 30234 ft | 455 kts | 331° |
| 2026-04-30 17:52 | 48.29465 | 7.42208 | 30226 ft | 455 kts | 332° |
| 2026-04-30 17:54 | 48.53803 | 7.19852 | 30219 ft | 456 kts | 332° |
| 2026-04-30 17:56 | 48.75415 | 6.99767 | 30233 ft | 457 kts | 332° |
| 2026-04-30 17:58 | 48.91660 | 6.84555 | 30221 ft | 458 kts | 330° |
| 2026-04-30 18:00 | 49.12425 | 6.64923 | 30234 ft | 459 kts | 330° |
| 2026-04-30 18:01 | 49.26345 | 6.53152 | 30242 ft | 457 kts | 339° |
| 2026-04-30 18:02 | 49.43858 | 6.41481 | 30255 ft | 457 kts | 339° |
| 2026-04-30 18:04 | 49.61362 | 6.29762 | 30256 ft | 457 kts | 339° |
| 2026-04-30 18:06 | 49.84764 | 6.14255 | 30247 ft | 456 kts | 347° |
| 2026-04-30 18:07 | 49.97222 | 6.12991 | 28417 ft | 452 kts | 3° |
| 2026-04-30 18:08 | 50.06696 | 6.13095 | 26516 ft | 457 kts | 3° |
| 2026-04-30 18:09 | 50.19366 | 6.13163 | 24577 ft | 450 kts | 3° |
| 2026-04-30 18:10 | 50.31473 | 6.15490 | 22535 ft | 430 kts | 25° |
| 2026-04-30 18:11 | 50.41430 | 6.25032 | 20508 ft | 415 kts | 36° |
| 2026-04-30 18:11 | 50.48323 | 6.32946 | 19409 ft | 405 kts | 49° |
| 2026-04-30 18:12 | 50.54525 | 6.41719 | 19297 ft | 408 kts | 32° |
| 2026-04-30 18:13 | 50.59496 | 6.46050 | 19295 ft | 409 kts | 31° |
| 2026-04-30 18:13 | 50.66118 | 6.51737 | 18877 ft | 402 kts | 31° |
| 2026-04-30 18:14 | 50.71536 | 6.56446 | 17335 ft | 372 kts | 32° |
| 2026-04-30 18:15 | 50.78215 | 6.62326 | 14296 ft | 362 kts | 32° |
| 2026-04-30 18:15 | 50.84631 | 6.67879 | 11739 ft | 333 kts | 25° |
| 2026-04-30 18:16 | 50.89119 | 6.68580 | 10611 ft | 318 kts | 3° |
| 2026-04-30 18:16 | 50.93326 | 6.68495 | 9819 ft | 295 kts | 3° |
| 2026-04-30 18:17 | 50.95370 | 6.68438 | 9209 ft | 292 kts | 3° |
| 2026-04-30 18:17 | 50.97394 | 6.68386 | 8598 ft | 290 kts | 3° |
| 2026-04-30 18:17 | 51.01219 | 6.68264 | 8240 ft | 258 kts | 3° |
| 2026-04-30 18:18 | 51.02951 | 6.68189 | 8112 ft | 239 kts | 5° |
| 2026-04-30 18:18 | 51.04458 | 6.68719 | 7970 ft | 209 kts | 34° |
| 2026-04-30 18:18 | 51.05669 | 6.69959 | 7482 ft | 207 kts | 42° |
| 2026-04-30 18:18 | 51.06825 | 6.71322 | 7038 ft | 207 kts | 43° |
| 2026-04-30 18:19 | 51.07979 | 6.72698 | 6601 ft | 207 kts | 43° |
| 2026-04-30 18:19 | 51.09127 | 6.74067 | 6208 ft | 206 kts | 43° |
| 2026-04-30 18:19 | 51.10272 | 6.75422 | 5821 ft | 205 kts | 44° |
| 2026-04-30 18:19 | 51.11423 | 6.76767 | 5483 ft | 205 kts | 44° |
| 2026-04-30 18:20 | 51.12579 | 6.78097 | 5170 ft | 205 kts | 43° |
| 2026-04-30 18:20 | 51.13944 | 6.78896 | 4837 ft | 219 kts | 7° |
| 2026-04-30 18:20 | 51.15421 | 6.78302 | 4525 ft | 225 kts | 330° |
| 2026-04-30 18:20 | 51.16455 | 6.76472 | 4207 ft | 225 kts | 293° |
| 2026-04-30 18:21 | 51.16667 | 6.74078 | 3893 ft | 217 kts | 255° |
| 2026-04-30 18:21 | 51.16014 | 6.72035 | 3590 ft | 203 kts | 217° |
| 2026-04-30 18:21 | 51.14805 | 6.71102 | 3257 ft | 190 kts | 181° |
| 2026-04-30 18:21 | 51.13567 | 6.71385 | 3042 ft | 179 kts | 150° |
| 2026-04-30 18:22 | 51.12614 | 6.72583 | 2994 ft | 175 kts | 123° |
| 2026-04-30 18:22 | 51.11950 | 6.76289 | 3009 ft | 175 kts | 107° |
| 2026-04-30 18:22 | 51.11440 | 6.78097 | 3016 ft | 185 kts | 121° |
| 2026-04-30 18:23 | 51.10635 | 6.79716 | 3001 ft | 187 kts | 129° |
| 2026-04-30 18:23 | 51.09718 | 6.81196 | 3012 ft | 188 kts | 133° |
| 2026-04-30 18:23 | 51.08767 | 6.82628 | 3012 ft | 188 kts | 133° |
| 2026-04-30 18:23 | 51.07811 | 6.84042 | 3015 ft | 188 kts | 134° |
| 2026-04-30 18:24 | 51.05894 | 6.86860 | 3014 ft | 188 kts | 134° |
| 2026-04-30 18:24 | 51.04935 | 6.88267 | 3014 ft | 187 kts | 134° |
| 2026-04-30 18:24 | 51.03976 | 6.89672 | 3015 ft | 188 kts | 134° |
| 2026-04-30 18:25 | 51.03018 | 6.91077 | 3014 ft | 188 kts | 134° |
| 2026-04-30 18:25 | 51.01098 | 6.93886 | 3015 ft | 188 kts | 134° |
| 2026-04-30 18:25 | 51.00139 | 6.95289 | 3015 ft | 188 kts | 134° |
| 2026-04-30 18:26 | 50.98260 | 6.98031 | 2927 ft | 174 kts | 134° |
| 2026-04-30 18:26 | 50.97377 | 6.99318 | 2699 ft | 170 kts | 133° |
| 2026-04-30 18:26 | 50.96515 | 7.00573 | 2488 ft | 166 kts | 133° |
| 2026-04-30 18:27 | 50.94882 | 7.02972 | 2126 ft | 153 kts | 134° |
| 2026-04-30 18:27 | 50.94113 | 7.04087 | 1885 ft | 145 kts | 134° |
| 2026-04-30 18:28 | 50.92826 | 7.05964 | 1527 ft | 109 kts | 134° |
| 2026-04-30 18:28 | 50.92254 | 7.06791 | 1371 ft | 111 kts | 133° |
| 2026-04-30 18:28 | 50.91068 | 7.08515 | 1054 ft | 119 kts | 135° |
| 2026-04-30 18:29 | 50.90464 | 7.09390 | 929 ft | 119 kts | 134° |
| 2026-04-30 18:29 | 50.88678 | 7.11992 | 430 ft | 117 kts | 134° |
| 2026-04-30 18:30 | 50.87673 | 7.13455 | 241 ft | 108 kts | 137° |
| 2026-04-30 18:30 | 50.86914 | 7.14543 | 260 ft | 15 kts | 160° |
| 2026-04-30 18:31 | 50.86878 | 7.14409 | 260 ft | 18 kts | 279° |
| 2026-04-30 18:31 | 50.86923 | 7.14010 | 253 ft | 22 kts | 280° |
| 2026-04-30 18:32 | 50.87032 | 7.13769 | 243 ft | 13 kts | 314° |
| 2026-04-30 18:32 | 50.87113 | 7.13649 | 240 ft | 19 kts | 319° |
| 2026-04-30 18:32 | 50.87333 | 7.13331 | 232 ft | 23 kts | 316° |
| 2026-04-30 18:33 | 50.87455 | 7.13153 | 232 ft | 25 kts | 317° |
| 2026-04-30 18:33 | 50.87688 | 7.12818 | 232 ft | 16 kts | 317° |
| 2026-04-30 18:33 | 50.87783 | 7.12679 | 232 ft | 21 kts | 317° |
| 2026-04-30 18:34 | 50.87896 | 7.12615 | 232 ft | 17 kts | 358° |
| 2026-04-30 18:34 | 50.88073 | 7.12379 | 234 ft | 18 kts | 308° |
| 2026-04-30 18:34 | 50.88106 | 7.12266 | 232 ft | 9 kts | 265° |
| 2026-04-30 18:35 | 50.88079 | 7.12215 | 232 ft | 6 kts | 216° |
| 2026-04-30 18:35 | 50.88059 | 7.12192 | 232 ft | 0 kts | 216° |
| 2026-04-30 18:35 | 50.88058 | 7.12192 | 232 ft | 0 kts | 216° |